createdAt,value
2018-08-11T00:01:12.188Z,15.80
2018-08-11T00:03:40.524Z,15.80
2018-08-11T00:06:08.865Z,15.80
2018-08-11T00:08:43.606Z,15.80
2018-08-11T00:11:11.875Z,15.80
2018-08-11T00:13:40.233Z,15.80
2018-08-11T00:16:08.496Z,15.70
2018-08-11T00:18:36.748Z,15.70
2018-08-11T00:21:05.166Z,15.70
2018-08-11T00:23:33.558Z,15.70
2018-08-11T00:26:01.946Z,15.60
2018-08-11T00:28:30.311Z,15.70
2018-08-11T00:30:58.641Z,15.70
2018-08-11T00:33:26.928Z,15.60
2018-08-11T00:35:55.305Z,15.60
2018-08-11T00:38:23.692Z,15.50
2018-08-11T00:40:52.066Z,15.50
2018-08-11T00:43:20.489Z,15.50
2018-08-11T00:45:48.828Z,15.50
2018-08-11T00:48:17.133Z,15.50
2018-08-11T00:50:45.431Z,15.50
2018-08-11T00:53:13.804Z,15.40
2018-08-11T00:55:42.139Z,15.50
2018-08-11T00:58:10.414Z,15.40
2018-08-11T01:00:38.738Z,15.30
2018-08-11T01:03:07.058Z,15.30
2018-08-11T01:05:35.348Z,15.20
2018-08-11T01:08:03.738Z,15.20
2018-08-11T01:10:32.074Z,15.20
2018-08-11T01:13:00.592Z,15.10
2018-08-11T01:15:28.934Z,15.10
2018-08-11T01:17:57.332Z,15.10
2018-08-11T01:20:25.626Z,15.10
2018-08-11T01:22:53.988Z,15.00
2018-08-11T01:25:22.345Z,15.00
2018-08-11T01:27:50.641Z,15.00
2018-08-11T01:30:20.428Z,15.00
2018-08-11T01:32:48.740Z,15.00
2018-08-11T01:35:17.042Z,14.90
2018-08-11T01:37:45.944Z,14.90
2018-08-11T01:40:15.143Z,14.90
2018-08-11T01:42:44.655Z,14.90
2018-08-11T01:45:14.660Z,14.90
2018-08-11T01:47:43.234Z,14.80
2018-08-11T01:50:12.840Z,14.70
2018-08-11T01:52:42.368Z,14.70
2018-08-11T01:55:12.300Z,14.70
2018-08-11T01:57:40.659Z,14.60
2018-08-11T02:00:11.012Z,14.60
2018-08-11T02:02:39.678Z,14.60
2018-08-11T02:05:09.292Z,14.70
2018-08-11T02:07:38.140Z,14.60
2018-08-11T02:10:08.342Z,14.60
2018-08-11T02:12:36.701Z,14.60
2018-08-11T02:15:07.436Z,14.60
2018-08-11T02:17:35.744Z,14.60
2018-08-11T02:20:05.248Z,14.60
2018-08-11T02:22:33.557Z,14.50
2018-08-11T02:25:01.924Z,14.60
2018-08-11T02:27:30.257Z,14.50
2018-08-11T02:29:58.560Z,14.60
2018-08-11T02:32:26.833Z,14.60
2018-08-11T02:34:55.137Z,14.50
2018-08-11T02:37:23.459Z,14.40
2018-08-11T02:39:51.790Z,14.40
2018-08-11T02:42:20.087Z,14.40
2018-08-11T02:44:48.386Z,14.50
2018-08-11T02:47:16.675Z,14.40
2018-08-11T02:49:44.977Z,14.40
2018-08-11T02:52:13.375Z,14.40
2018-08-11T02:54:41.701Z,14.20
2018-08-11T02:57:10.089Z,14.30
2018-08-11T02:59:38.362Z,14.20
2018-08-11T03:02:06.676Z,14.30
2018-08-11T03:04:34.985Z,14.20
2018-08-11T03:07:03.369Z,14.20
2018-08-11T03:09:31.692Z,14.10
2018-08-11T03:11:59.995Z,14.20
2018-08-11T03:14:28.373Z,14.10
2018-08-11T03:16:56.643Z,14.00
2018-08-11T03:19:24.968Z,14.00
2018-08-11T03:21:53.296Z,13.90
2018-08-11T03:24:21.579Z,13.90
2018-08-11T03:26:49.941Z,13.90
2018-08-11T03:29:18.309Z,13.80
2018-08-11T03:31:49.619Z,13.80
2018-08-11T03:34:17.944Z,13.80
2018-08-11T03:36:46.265Z,13.70
2018-08-11T03:39:14.541Z,13.70
2018-08-11T03:41:42.847Z,13.70
2018-08-11T03:44:11.662Z,13.70
2018-08-11T03:46:39.986Z,13.80
2018-08-11T03:49:08.265Z,13.80
2018-08-11T03:51:36.556Z,13.70
2018-08-11T03:54:04.944Z,13.70
2018-08-11T03:56:33.193Z,13.60
2018-08-11T03:59:01.505Z,13.60
2018-08-11T04:01:29.801Z,13.60
2018-08-11T04:03:58.128Z,13.60
2018-08-11T04:06:26.543Z,13.60
2018-08-11T04:08:54.793Z,13.50
2018-08-11T04:11:23.107Z,13.50
2018-08-11T04:13:51.309Z,13.50
2018-08-11T04:16:19.653Z,13.50
2018-08-11T04:18:47.993Z,13.50
2018-08-11T04:21:16.230Z,13.50
2018-08-11T04:23:44.501Z,13.50
2018-08-11T04:26:12.722Z,13.50
2018-08-11T04:28:41.142Z,13.50
2018-08-11T04:31:09.447Z,13.60
2018-08-11T04:33:37.761Z,13.50
2018-08-11T04:36:06.016Z,13.60
2018-08-11T04:38:34.753Z,13.60
2018-08-11T04:41:03.621Z,13.70
2018-08-11T04:43:32.157Z,13.80
2018-08-11T04:46:00.490Z,13.80
2018-08-11T04:48:28.803Z,13.90
2018-08-11T04:50:57.097Z,13.90
2018-08-11T04:53:25.431Z,13.90
2018-08-11T04:55:53.671Z,13.90
2018-08-11T04:58:21.951Z,13.90
2018-08-11T05:00:50.278Z,14.00
2018-08-11T05:03:18.456Z,14.00
2018-08-11T05:05:46.737Z,14.10
2018-08-11T05:08:15.006Z,14.10
2018-08-11T05:10:43.332Z,14.20
2018-08-11T05:13:11.572Z,14.20
2018-08-11T05:15:39.813Z,14.20
2018-08-11T05:18:08.151Z,14.20
2018-08-11T05:20:36.398Z,14.30
2018-08-11T05:23:04.818Z,14.30
2018-08-11T05:25:33.048Z,14.40
2018-08-11T05:28:01.415Z,14.50
2018-08-11T05:30:29.814Z,14.50
2018-08-11T05:32:58.009Z,14.50
2018-08-11T05:35:26.303Z,14.60
2018-08-11T05:37:54.570Z,14.60
2018-08-11T05:40:22.976Z,14.70
2018-08-11T05:42:51.260Z,14.80
2018-08-11T05:45:19.562Z,15.00
2018-08-11T05:47:47.852Z,15.10
2018-08-11T05:50:16.160Z,15.30
2018-08-11T05:52:44.509Z,15.40
2018-08-11T05:55:12.927Z,15.40
2018-08-11T05:57:41.192Z,15.50
2018-08-11T06:00:10.102Z,15.70
2018-08-11T06:02:38.692Z,15.80
2018-08-11T06:05:07.469Z,15.80
2018-08-11T06:07:35.787Z,15.90
2018-08-11T06:10:04.975Z,16.00
2018-08-11T06:12:33.358Z,16.00
2018-08-11T06:15:01.634Z,16.10
2018-08-11T06:17:29.866Z,16.20
2018-08-11T06:19:58.168Z,16.30
2018-08-11T06:22:26.511Z,16.40
2018-08-11T06:24:54.753Z,16.40
2018-08-11T06:27:23.074Z,16.50
2018-08-11T06:29:51.400Z,16.60
2018-08-11T06:32:19.790Z,16.60
2018-08-11T06:34:48.051Z,16.70
2018-08-11T06:37:16.401Z,16.80
2018-08-11T06:39:45.108Z,16.90
2018-08-11T06:42:13.697Z,17.00
2018-08-11T06:44:42.011Z,17.10
2018-08-11T06:47:10.351Z,17.30
2018-08-11T06:49:38.582Z,17.50
2018-08-11T06:52:07.123Z,17.60
2018-08-11T06:54:35.491Z,17.70
2018-08-11T06:57:03.885Z,17.90
2018-08-11T06:59:32.122Z,18.10
2018-08-11T07:02:01.228Z,18.30
2018-08-11T07:04:29.493Z,18.40
2018-08-11T07:06:58.958Z,18.50
2018-08-11T07:09:27.269Z,18.70
2018-08-11T07:11:55.549Z,19.00
2018-08-11T07:14:23.825Z,19.30
2018-08-11T07:16:52.141Z,19.80
2018-08-11T07:19:20.533Z,20.10
2018-08-11T07:21:48.889Z,20.40
2018-08-11T07:24:17.320Z,20.50
2018-08-11T07:26:45.667Z,20.60
2018-08-11T07:29:13.980Z,20.70
2018-08-11T07:31:42.314Z,20.90
2018-08-11T07:34:10.630Z,21.00
2018-08-11T07:36:38.966Z,20.90
2018-08-11T07:39:08.201Z,20.80
2018-08-11T07:41:36.486Z,20.50
2018-08-11T07:44:04.921Z,20.50
2018-08-11T07:46:33.221Z,20.60
2018-08-11T07:49:01.915Z,20.60
2018-08-11T07:51:30.321Z,20.60
2018-08-11T07:53:58.653Z,20.50
2018-08-11T07:56:26.961Z,20.60
2018-08-11T07:58:55.260Z,20.90
2018-08-11T08:01:23.630Z,21.00
2018-08-11T08:03:51.896Z,21.10
2018-08-11T08:06:20.244Z,21.10
2018-08-11T08:08:48.511Z,21.20
2018-08-11T08:11:16.782Z,21.30
2018-08-11T08:13:45.112Z,21.40
2018-08-11T08:16:13.382Z,21.40
2018-08-11T08:18:41.612Z,21.40
2018-08-11T08:21:09.864Z,21.50
2018-08-11T08:23:38.189Z,21.50
2018-08-11T08:26:06.615Z,21.60
2018-08-11T08:28:34.871Z,21.70
2018-08-11T08:31:03.178Z,21.80
2018-08-11T08:33:31.536Z,21.80
2018-08-11T08:36:00.407Z,21.80
2018-08-11T08:38:28.938Z,21.70
2018-08-11T08:40:57.334Z,21.80
2018-08-11T08:43:25.648Z,21.90
2018-08-11T08:45:53.936Z,21.80
2018-08-11T08:48:22.287Z,21.70
2018-08-11T08:50:50.543Z,21.90
2018-08-11T08:53:18.848Z,22.00
2018-08-11T08:55:47.124Z,22.00
2018-08-11T08:58:15.370Z,22.10
2018-08-11T09:00:43.639Z,22.20
2018-08-11T09:03:11.899Z,22.30
2018-08-11T09:05:40.234Z,22.30
2018-08-11T09:08:08.559Z,22.40
2018-08-11T09:10:36.840Z,22.50
2018-08-11T09:13:05.442Z,22.60
2018-08-11T09:15:33.683Z,22.70
2018-08-11T09:18:01.956Z,22.70
2018-08-11T09:20:30.228Z,22.60
2018-08-11T09:22:58.630Z,22.70
2018-08-11T09:25:26.901Z,22.80
2018-08-11T09:27:55.270Z,22.80
2018-08-11T09:30:23.585Z,22.80
2018-08-11T09:32:51.917Z,23.10
2018-08-11T09:35:20.366Z,23.10
2018-08-11T09:37:48.627Z,23.00
2018-08-11T09:40:17.030Z,23.00
2018-08-11T09:42:45.397Z,23.10
2018-08-11T09:45:13.699Z,23.10
2018-08-11T09:47:41.945Z,23.10
2018-08-11T09:50:10.323Z,23.10
2018-08-11T09:52:38.658Z,23.20
2018-08-11T09:55:06.952Z,23.30
2018-08-11T09:57:35.314Z,23.20
2018-08-11T10:00:04.676Z,23.10
2018-08-11T10:02:32.955Z,23.10
2018-08-11T10:05:01.281Z,23.00
2018-08-11T10:07:29.510Z,23.00
2018-08-11T10:09:57.807Z,23.10
2018-08-11T10:12:26.122Z,23.10
2018-08-11T10:14:54.424Z,23.20
2018-08-11T10:17:22.749Z,23.10
2018-08-11T10:19:51.038Z,23.00
2018-08-11T10:22:19.359Z,23.10
2018-08-11T10:24:47.686Z,23.20
2018-08-11T10:27:16.038Z,23.50
2018-08-11T10:29:44.388Z,23.70
2018-08-11T10:32:12.714Z,23.80
2018-08-11T10:34:40.943Z,24.00
2018-08-11T10:37:09.231Z,24.10
2018-08-11T10:39:37.516Z,24.10
2018-08-11T10:42:05.879Z,24.30
2018-08-11T10:44:34.111Z,24.20
2018-08-11T10:47:02.522Z,24.10
2018-08-11T10:49:30.882Z,24.20
2018-08-11T10:51:59.300Z,24.30
2018-08-11T10:54:27.572Z,24.30
2018-08-11T10:56:55.824Z,24.50
2018-08-11T10:59:24.043Z,24.70
2018-08-11T11:01:52.325Z,24.90
2018-08-11T11:04:20.579Z,25.00
2018-08-11T11:06:48.847Z,25.10
2018-08-11T11:09:17.094Z,25.00
2018-08-11T11:11:45.373Z,25.10
2018-08-11T11:14:13.679Z,25.00
2018-08-11T11:16:41.980Z,24.60
2018-08-11T11:19:10.257Z,24.40
2018-08-11T11:21:38.505Z,24.50
2018-08-11T11:24:06.836Z,24.60
2018-08-11T11:26:35.112Z,24.70
2018-08-11T11:29:03.400Z,24.90
2018-08-11T11:31:31.788Z,24.90
2018-08-11T11:34:00.157Z,24.90
2018-08-11T11:36:28.468Z,25.00
2018-08-11T11:38:56.738Z,25.20
2018-08-11T11:41:25.054Z,25.20
2018-08-11T11:43:53.314Z,25.20
2018-08-11T11:46:21.543Z,25.10
2018-08-11T11:48:49.856Z,25.20
2018-08-11T11:51:18.149Z,25.30
2018-08-11T11:53:46.422Z,25.40
2018-08-11T11:56:14.861Z,25.20
2018-08-11T11:58:43.182Z,25.00
2018-08-11T12:01:11.642Z,25.10
2018-08-11T12:03:40.023Z,25.20
2018-08-11T12:06:08.360Z,25.40
2018-08-11T12:08:36.707Z,25.60
2018-08-11T12:11:05.444Z,25.50
2018-08-11T12:13:33.706Z,25.50
2018-08-11T12:16:02.371Z,25.60
2018-08-11T12:18:30.745Z,25.70
2018-08-11T12:20:59.063Z,25.80
2018-08-11T12:23:27.427Z,25.90
2018-08-11T12:25:55.778Z,25.90
2018-08-11T12:28:24.188Z,25.80
2018-08-11T12:30:52.713Z,25.80
2018-08-11T12:33:21.018Z,25.90
2018-08-11T12:35:49.562Z,25.90
2018-08-11T12:38:17.859Z,26.00
2018-08-11T12:40:47.201Z,25.80
2018-08-11T12:43:15.517Z,25.80
2018-08-11T12:45:43.876Z,25.70
2018-08-11T12:48:12.134Z,25.80
2018-08-11T12:50:40.444Z,25.80
2018-08-11T12:53:08.808Z,25.80
2018-08-11T12:55:37.374Z,25.80
2018-08-11T12:58:05.680Z,25.90
2018-08-11T13:00:34.168Z,26.00
2018-08-11T13:03:02.442Z,26.20
2018-08-11T13:05:30.800Z,26.40
2018-08-11T13:07:59.078Z,26.40
2018-08-11T13:10:27.430Z,26.30
2018-08-11T13:12:55.768Z,26.40
2018-08-11T13:15:24.179Z,26.70
2018-08-11T13:17:52.570Z,27.00
2018-08-11T13:20:20.878Z,27.30
2018-08-11T13:22:49.239Z,27.50
2018-08-11T13:25:17.552Z,27.70
2018-08-11T13:27:45.915Z,28.00
2018-08-11T13:30:14.223Z,27.80
2018-08-11T13:32:42.513Z,27.60
2018-08-11T13:35:10.891Z,27.40
2018-08-11T13:37:39.217Z,27.50
2018-08-11T13:40:07.536Z,27.60
2018-08-11T13:42:35.917Z,27.40
2018-08-11T13:45:04.668Z,27.30
2018-08-11T13:47:32.991Z,27.40
2018-08-11T13:50:01.323Z,27.30
2018-08-11T13:52:29.639Z,27.30
2018-08-11T13:54:58.019Z,27.10
2018-08-11T13:57:26.429Z,27.10
2018-08-11T13:59:54.834Z,26.70
2018-08-11T14:02:23.128Z,26.50
2018-08-11T14:04:51.415Z,26.30
2018-08-11T14:07:19.839Z,26.20
2018-08-11T14:09:48.118Z,25.80
2018-08-11T14:12:16.472Z,25.70
2018-08-11T14:14:44.819Z,25.70
2018-08-11T14:17:13.105Z,26.00
2018-08-11T14:19:41.464Z,26.40
2018-08-11T14:22:09.773Z,26.90
2018-08-11T14:24:38.215Z,27.50
2018-08-11T14:27:06.552Z,27.70
2018-08-11T14:29:34.883Z,27.90
2018-08-11T14:32:03.320Z,28.10
2018-08-11T14:34:31.833Z,28.10
2018-08-11T14:37:00.127Z,28.20
2018-08-11T14:39:28.443Z,27.80
2018-08-11T14:41:56.755Z,27.60
2018-08-11T14:44:26.377Z,27.40
2018-08-11T14:46:54.631Z,27.40
2018-08-11T14:49:22.878Z,27.40
2018-08-11T14:51:51.261Z,27.40
2018-08-11T14:54:19.673Z,27.60
2018-08-11T14:56:47.995Z,28.00
2018-08-11T14:59:16.315Z,28.30
2018-08-11T15:01:44.610Z,28.40
2018-08-11T15:04:12.968Z,28.70
2018-08-11T15:06:41.238Z,28.70
2018-08-11T15:09:10.518Z,28.00
2018-08-11T15:11:39.307Z,27.60
2018-08-11T15:14:07.678Z,28.20
2018-08-11T15:16:36.016Z,29.20
2018-08-11T15:19:04.407Z,29.80
2018-08-11T15:21:32.781Z,29.80
2018-08-11T15:24:01.294Z,29.90
2018-08-11T15:26:29.614Z,29.60
2018-08-11T15:28:57.887Z,29.70
2018-08-11T15:31:26.185Z,30.00
2018-08-11T15:33:54.494Z,30.60
2018-08-11T15:36:22.854Z,31.00
2018-08-11T15:38:51.190Z,31.00
2018-08-11T15:41:23.424Z,30.80
2018-08-11T15:43:51.760Z,30.20
2018-08-11T15:46:20.037Z,29.60
2018-08-11T15:48:48.315Z,28.80
2018-08-11T15:51:16.608Z,28.10
2018-08-11T15:53:44.889Z,27.70
2018-08-11T15:56:13.224Z,27.50
2018-08-11T15:58:41.558Z,27.20
2018-08-11T16:01:09.880Z,26.70
2018-08-11T16:03:38.184Z,26.40
2018-08-11T16:06:06.636Z,26.20
2018-08-11T16:08:35.113Z,26.00
2018-08-11T16:11:03.478Z,25.90
2018-08-11T16:13:31.754Z,25.70
2018-08-11T16:16:00.193Z,25.50
2018-08-11T16:18:28.646Z,25.40
2018-08-11T16:20:56.978Z,25.30
2018-08-11T16:23:25.327Z,25.30
2018-08-11T16:25:53.658Z,25.30
2018-08-11T16:28:22.007Z,25.20
2018-08-11T16:30:50.379Z,25.10
2018-08-11T16:33:18.722Z,25.00
2018-08-11T16:35:47.082Z,24.90
2018-08-11T16:38:15.335Z,24.70
2018-08-11T16:40:43.577Z,24.60
2018-08-11T16:43:11.908Z,24.40
2018-08-11T16:45:40.172Z,24.40
2018-08-11T16:48:08.483Z,24.30
2018-08-11T16:50:36.858Z,24.20
2018-08-11T16:53:05.323Z,24.10
2018-08-11T16:55:33.666Z,24.10
2018-08-11T16:58:04.076Z,24.00
2018-08-11T17:00:32.401Z,23.90
2018-08-11T17:03:00.720Z,23.80
2018-08-11T17:05:29.069Z,23.80
2018-08-11T17:07:57.442Z,23.70
2018-08-11T17:10:26.083Z,23.60
2018-08-11T17:12:54.400Z,23.50
2018-08-11T17:15:22.740Z,23.40
2018-08-11T17:17:51.070Z,23.30
2018-08-11T17:20:19.368Z,23.30
2018-08-11T17:22:47.628Z,23.10
2018-08-11T17:25:15.955Z,23.10
2018-08-11T17:27:44.536Z,23.00
2018-08-11T17:30:12.966Z,22.90
2018-08-11T17:32:41.728Z,22.90
2018-08-11T17:35:10.253Z,22.90
2018-08-11T17:37:38.492Z,22.80
2018-08-11T17:40:07.375Z,22.70
2018-08-11T17:42:35.752Z,22.70
2018-08-11T17:45:04.227Z,22.60
2018-08-11T17:47:32.507Z,22.60
2018-08-11T17:50:00.898Z,22.50
2018-08-11T17:52:29.192Z,22.40
2018-08-11T17:54:57.613Z,22.20
2018-08-11T17:57:25.873Z,22.20
2018-08-11T17:59:54.204Z,22.10
2018-08-11T18:02:22.518Z,22.10
2018-08-11T18:04:50.843Z,21.80
2018-08-11T18:07:19.096Z,21.80
2018-08-11T18:09:47.455Z,21.70
2018-08-11T18:12:15.963Z,21.60
2018-08-11T18:14:44.270Z,21.50
2018-08-11T18:17:12.552Z,21.50
2018-08-11T18:19:40.838Z,21.60
2018-08-11T18:22:09.110Z,21.40
2018-08-11T18:24:37.451Z,21.30
2018-08-11T18:27:05.728Z,21.20
2018-08-11T18:29:34.013Z,21.10
2018-08-11T18:32:02.259Z,20.90
2018-08-11T18:34:30.545Z,20.90
2018-08-11T18:36:58.962Z,20.80
2018-08-11T18:39:27.383Z,20.90
2018-08-11T18:41:55.710Z,20.80
2018-08-11T18:44:24.010Z,20.60
2018-08-11T18:46:52.249Z,20.60
2018-08-11T18:49:20.784Z,20.40
2018-08-11T18:51:49.139Z,20.40
2018-08-11T18:54:17.524Z,20.30
2018-08-11T18:56:45.862Z,20.10
2018-08-11T18:59:14.215Z,20.10
2018-08-11T19:01:42.755Z,20.10
2018-08-11T19:04:11.460Z,19.90
2018-08-11T19:06:40.107Z,19.90
2018-08-11T19:09:10.710Z,19.80
2018-08-11T19:11:39.093Z,19.70
2018-08-11T19:14:07.731Z,19.60
2018-08-11T19:16:36.343Z,19.50
2018-08-11T19:19:04.844Z,19.50
2018-08-11T19:21:33.245Z,19.40
2018-08-11T19:24:01.510Z,19.40
2018-08-11T19:26:29.851Z,19.30
2018-08-11T19:28:58.110Z,19.30
2018-08-11T19:31:26.509Z,19.20
2018-08-11T19:33:54.864Z,19.10
2018-08-11T19:36:23.292Z,19.10
2018-08-11T19:38:51.868Z,19.00
2018-08-11T19:41:20.342Z,18.90
2018-08-11T19:43:48.675Z,18.80
2018-08-11T19:46:17.063Z,18.80
2018-08-11T19:48:45.354Z,18.70
2018-08-11T19:51:13.837Z,18.60
2018-08-11T19:53:42.145Z,18.50
2018-08-11T19:56:10.413Z,18.40
2018-08-11T19:58:38.666Z,18.40
2018-08-11T20:01:07.251Z,18.40
2018-08-11T20:03:35.614Z,18.30
2018-08-11T20:06:03.922Z,18.30
2018-08-11T20:08:32.638Z,18.20
2018-08-11T20:11:01.002Z,18.10
2018-08-11T20:13:29.327Z,18.00
2018-08-11T20:15:57.634Z,17.90
2018-08-11T20:18:25.966Z,17.80
2018-08-11T20:20:54.358Z,17.80
2018-08-11T20:23:22.800Z,17.70
2018-08-11T20:25:51.192Z,17.70
2018-08-11T20:28:19.542Z,17.70
2018-08-11T20:30:47.916Z,17.60
2018-08-11T20:33:16.342Z,17.60
2018-08-11T20:35:44.717Z,17.50
2018-08-11T20:38:13.100Z,17.60
2018-08-11T20:40:41.546Z,17.50
2018-08-11T20:43:10.848Z,17.40
2018-08-11T20:45:39.111Z,17.40
2018-08-11T20:48:07.487Z,17.30
2018-08-11T20:50:35.756Z,17.20
2018-08-11T20:53:04.175Z,17.10
2018-08-11T20:55:32.631Z,17.10
2018-08-11T20:58:01.791Z,17.00
2018-08-11T21:00:30.204Z,17.00
2018-08-11T21:02:58.597Z,16.90
2018-08-11T21:05:26.979Z,16.80
2018-08-11T21:07:55.230Z,16.90
2018-08-11T21:10:23.572Z,16.80
2018-08-11T21:12:51.880Z,16.80
2018-08-11T21:15:20.252Z,16.70
2018-08-11T21:17:48.630Z,16.60
2018-08-11T21:20:16.997Z,16.60
2018-08-11T21:22:45.419Z,16.60
2018-08-11T21:25:13.876Z,16.60
2018-08-11T21:27:42.158Z,16.60
2018-08-11T21:30:12.608Z,16.60
2018-08-11T21:32:41.304Z,16.50
2018-08-11T21:35:09.608Z,16.50
2018-08-11T21:37:37.859Z,16.40
2018-08-11T21:40:08.566Z,16.40
2018-08-11T21:42:36.985Z,16.30
2018-08-11T21:45:05.664Z,16.30
2018-08-11T21:47:33.966Z,16.20
2018-08-11T21:50:02.229Z,16.20
2018-08-11T21:52:30.610Z,16.20
2018-08-11T21:54:58.962Z,16.10
2018-08-11T21:57:27.270Z,16.00
2018-08-11T21:59:55.538Z,16.00
2018-08-11T22:02:23.876Z,16.00
2018-08-11T22:04:52.098Z,15.90
2018-08-11T22:07:20.466Z,15.80
2018-08-11T22:09:48.762Z,15.80
2018-08-11T22:12:17.081Z,15.80
2018-08-11T22:14:45.399Z,15.70
2018-08-11T22:17:13.743Z,15.70
2018-08-11T22:19:42.006Z,15.70
2018-08-11T22:22:10.284Z,15.70
2018-08-11T22:24:38.543Z,15.70
2018-08-11T22:27:06.926Z,15.60
2018-08-11T22:29:36.152Z,15.50
2018-08-11T22:32:04.500Z,15.50
2018-08-11T22:34:32.806Z,15.50
2018-08-11T22:37:01.131Z,15.50
2018-08-11T22:39:29.524Z,15.50
2018-08-11T22:41:57.916Z,15.40
2018-08-11T22:44:26.231Z,15.40
2018-08-11T22:46:54.503Z,15.30
2018-08-11T22:49:22.820Z,15.30
2018-08-11T22:51:51.155Z,15.30
2018-08-11T22:54:19.489Z,15.30
2018-08-11T22:56:47.838Z,15.30
2018-08-11T22:59:16.147Z,15.30
2018-08-11T23:01:44.393Z,15.20
2018-08-11T23:04:12.698Z,15.30
2018-08-11T23:06:41.042Z,15.20
2018-08-11T23:09:09.314Z,15.20
2018-08-11T23:11:37.572Z,15.10
2018-08-11T23:14:05.891Z,15.10
2018-08-11T23:16:34.255Z,15.10
2018-08-11T23:19:02.488Z,15.20
2018-08-11T23:21:30.815Z,15.20
2018-08-11T23:23:59.146Z,15.10
2018-08-11T23:26:27.458Z,15.00
2018-08-11T23:28:55.764Z,15.00
2018-08-11T23:31:24.066Z,15.00
2018-08-11T23:33:52.358Z,15.10
2018-08-11T23:36:20.614Z,15.00
2018-08-11T23:38:48.905Z,14.90
2018-08-11T23:41:17.281Z,14.80
2018-08-11T23:43:45.559Z,14.80
2018-08-11T23:46:13.824Z,14.70
2018-08-11T23:48:42.088Z,14.80
2018-08-11T23:51:10.402Z,14.80
2018-08-11T23:53:38.623Z,14.70
2018-08-11T23:56:07.052Z,14.80
2018-08-11T23:58:35.345Z,14.80
